sensor_id;sensor_type;location;lat;lon;timestamp;temperature;humidity
12452;DHT22;6291;48.924;12.204;2023-05-06T00:01:20;13.80;99.90
12452;DHT22;6291;48.924;12.204;2023-05-06T00:06:23;11.40;99.90
12452;DHT22;6291;48.924;12.204;2023-05-06T00:11:27;13.90;99.90
12452;DHT22;6291;48.924;12.204;2023-05-06T00:16:31;13.90;99.90
12452;DHT22;6291;48.924;12.204;2023-05-06T00:21:34;13.70;99.90
12452;DHT22;6291;48.924;12.204;2023-05-06T00:26:38;13.70;99.90
12452;DHT22;6291;48.924;12.204;2023-05-06T00:31:41;13.60;99.90
12452;DHT22;6291;48.924;12.204;2023-05-06T00:36:46;13.50;99.90
12452;DHT22;6291;48.924;12.204;2023-05-06T00:41:50;13.40;99.90
12452;DHT22;6291;48.924;12.204;2023-05-06T00:46:55;13.40;99.90
12452;DHT22;6291;48.924;12.204;2023-05-06T00:51:59;10.20;99.90
12452;DHT22;6291;48.924;12.204;2023-05-06T00:57:03;13.20;99.90
12452;DHT22;6291;48.924;12.204;2023-05-06T01:02:06;12.40;99.90
12452;DHT22;6291;48.924;12.204;2023-05-06T01:07:11;13.20;99.90
12452;DHT22;6291;48.924;12.204;2023-05-06T01:12:19;13.10;99.90
12452;DHT22;6291;48.924;12.204;2023-05-06T01:17:26;13.00;99.90
12452;DHT22;6291;48.924;12.204;2023-05-06T01:22:30;13.00;99.90
12452;DHT22;6291;48.924;12.204;2023-05-06T01:27:38;13.00;99.90
12452;DHT22;6291;48.924;12.204;2023-05-06T01:32:44;13.00;99.90
12452;DHT22;6291;48.924;12.204;2023-05-06T01:37:51;13.00;99.90
12452;DHT22;6291;48.924;12.204;2023-05-06T01:42:59;12.90;99.90
12452;DHT22;6291;48.924;12.204;2023-05-06T01:48:04;12.90;99.90
12452;DHT22;6291;48.924;12.204;2023-05-06T01:53:07;12.80;99.90
12452;DHT22;6291;48.924;12.204;2023-05-06T01:58:12;15.00;99.90
12452;DHT22;6291;48.924;12.204;2023-05-06T02:03:15;12.80;99.90
12452;DHT22;6291;48.924;12.204;2023-05-06T02:08:18;12.80;99.90
12452;DHT22;6291;48.924;12.204;2023-05-06T02:13:23;12.80;99.90
12452;DHT22;6291;48.924;12.204;2023-05-06T02:18:27;12.80;99.90
12452;DHT22;6291;48.924;12.204;2023-05-06T02:23:30;12.70;99.90
12452;DHT22;6291;48.924;12.204;2023-05-06T02:28:35;12.70;99.90
12452;DHT22;6291;48.924;12.204;2023-05-06T02:33:38;12.00;99.90
12452;DHT22;6291;48.924;12.204;2023-05-06T02:38:41;13.80;99.90
12452;DHT22;6291;48.924;12.204;2023-05-06T02:43:45;12.70;99.90
12452;DHT22;6291;48.924;12.204;2023-05-06T02:48:48;12.70;99.90
12452;DHT22;6291;48.924;12.204;2023-05-06T02:53:52;12.70;99.90
12452;DHT22;6291;48.924;12.204;2023-05-06T02:58:56;12.70;99.90
12452;DHT22;6291;48.924;12.204;2023-05-06T03:03:59;12.70;99.90
12452;DHT22;6291;48.924;12.204;2023-05-06T03:09:02;12.70;99.90
12452;DHT22;6291;48.924;12.204;2023-05-06T03:14:08;12.70;99.90
12452;DHT22;6291;48.924;12.204;2023-05-06T03:19:11;12.70;99.90
12452;DHT22;6291;48.924;12.204;2023-05-06T03:24:17;12.70;99.90
12452;DHT22;6291;48.924;12.204;2023-05-06T03:29:23;12.70;99.90
12452;DHT22;6291;48.924;12.204;2023-05-06T03:34:27;12.70;99.90
12452;DHT22;6291;48.924;12.204;2023-05-06T03:39:32;12.70;99.90
12452;DHT22;6291;48.924;12.204;2023-05-06T03:44:37;12.80;99.90
12452;DHT22;6291;48.924;12.204;2023-05-06T03:49:41;12.70;99.90
12452;DHT22;6291;48.924;12.204;2023-05-06T03:54:45;12.60;99.90
12452;DHT22;6291;48.924;12.204;2023-05-06T03:59:50;12.70;99.90
12452;DHT22;6291;48.924;12.204;2023-05-06T04:04:53;12.70;99.90
12452;DHT22;6291;48.924;12.204;2023-05-06T04:09:56;12.70;99.90
12452;DHT22;6291;48.924;12.204;2023-05-06T04:15:01;12.60;99.90
12452;DHT22;6291;48.924;12.204;2023-05-06T04:20:05;12.70;99.90
12452;DHT22;6291;48.924;12.204;2023-05-06T04:25:13;12.70;99.90
12452;DHT22;6291;48.924;12.204;2023-05-06T04:30:18;12.80;99.90
12452;DHT22;6291;48.924;12.204;2023-05-06T04:35:22;12.90;99.90
12452;DHT22;6291;48.924;12.204;2023-05-06T04:40:30;12.90;99.90
12452;DHT22;6291;48.924;12.204;2023-05-06T04:45:35;12.90;99.90
12452;DHT22;6291;48.924;12.204;2023-05-06T04:50:41;15.50;99.90
12452;DHT22;6291;48.924;12.204;2023-05-06T04:55:44;13.10;99.90
12452;DHT22;6291;48.924;12.204;2023-05-06T05:00:49;13.10;99.90
12452;DHT22;6291;48.924;12.204;2023-05-06T05:05:52;13.10;99.90
12452;DHT22;6291;48.924;12.204;2023-05-06T05:10:55;13.00;99.90
12452;DHT22;6291;48.924;12.204;2023-05-06T05:16:02;13.00;99.90
12452;DHT22;6291;48.924;12.204;2023-05-06T05:21:08;13.10;99.90
12452;DHT22;6291;48.924;12.204;2023-05-06T05:26:11;13.00;99.90
12452;DHT22;6291;48.924;12.204;2023-05-06T05:31:18;13.00;99.90
12452;DHT22;6291;48.924;12.204;2023-05-06T05:36:21;13.10;99.90
12452;DHT22;6291;48.924;12.204;2023-05-06T05:41:28;13.20;99.90
12452;DHT22;6291;48.924;12.204;2023-05-06T05:46:32;13.40;99.90
12452;DHT22;6291;48.924;12.204;2023-05-06T05:51:37;13.30;99.90
12452;DHT22;6291;48.924;12.204;2023-05-06T05:56:42;13.80;99.90
12452;DHT22;6291;48.924;12.204;2023-05-06T06:01:46;13.90;99.90
12452;DHT22;6291;48.924;12.204;2023-05-06T06:06:50;13.50;99.90
12452;DHT22;6291;48.924;12.204;2023-05-06T06:11:53;13.80;99.90
12452;DHT22;6291;48.924;12.204;2023-05-06T06:16:59;13.60;99.90
12452;DHT22;6291;48.924;12.204;2023-05-06T06:22:03;13.60;99.90
12452;DHT22;6291;48.924;12.204;2023-05-06T06:27:08;12.90;99.90
12452;DHT22;6291;48.924;12.204;2023-05-06T06:32:13;14.00;99.90
12452;DHT22;6291;48.924;12.204;2023-05-06T06:37:16;13.80;99.90
12452;DHT22;6291;48.924;12.204;2023-05-06T06:42:20;13.80;99.90
12452;DHT22;6291;48.924;12.204;2023-05-06T06:47:35;13.40;99.90
12452;DHT22;6291;48.924;12.204;2023-05-06T06:52:38;13.60;99.90
12452;DHT22;6291;48.924;12.204;2023-05-06T06:57:41;13.90;99.90
12452;DHT22;6291;48.924;12.204;2023-05-06T07:02:46;14.20;99.90
12452;DHT22;6291;48.924;12.204;2023-05-06T07:07:50;14.40;99.90
12452;DHT22;6291;48.924;12.204;2023-05-06T07:12:53;14.90;99.90
12452;DHT22;6291;48.924;12.204;2023-05-06T07:17:57;14.50;99.90
12452;DHT22;6291;48.924;12.204;2023-05-06T07:23:01;14.20;99.90
12452;DHT22;6291;48.924;12.204;2023-05-06T07:28:04;14.20;99.90
12452;DHT22;6291;48.924;12.204;2023-05-06T07:33:08;14.10;99.90
12452;DHT22;6291;48.924;12.204;2023-05-06T07:38:11;14.20;99.90
12452;DHT22;6291;48.924;12.204;2023-05-06T07:43:15;14.50;99.90
12452;DHT22;6291;48.924;12.204;2023-05-06T07:48:19;15.30;99.90
12452;DHT22;6291;48.924;12.204;2023-05-06T07:53:22;14.80;1.00
12452;DHT22;6291;48.924;12.204;2023-05-06T07:58:25;15.00;38.30
12452;DHT22;6291;48.924;12.204;2023-05-06T08:03:30;16.40;1.00
12452;DHT22;6291;48.924;12.204;2023-05-06T08:08:34;16.50;80.20
12452;DHT22;6291;48.924;12.204;2023-05-06T08:13:37;16.20;1.00
12452;DHT22;6291;48.924;12.204;2023-05-06T08:18:41;16.10;99.90
12452;DHT22;6291;48.924;12.204;2023-05-06T08:23:44;16.40;6.40
12452;DHT22;6291;48.924;12.204;2023-05-06T08:28:48;17.60;1.00
12452;DHT22;6291;48.924;12.204;2023-05-06T08:33:52;16.90;1.00
12452;DHT22;6291;48.924;12.204;2023-05-06T08:38:55;16.10;1.00
12452;DHT22;6291;48.924;12.204;2023-05-06T08:43:58;15.80;1.00
12452;DHT22;6291;48.924;12.204;2023-05-06T08:49:04;16.00;19.90
12452;DHT22;6291;48.924;12.204;2023-05-06T08:54:08;16.40;1.00
12452;DHT22;6291;48.924;12.204;2023-05-06T08:59:11;17.00;99.90
12452;DHT22;6291;48.924;12.204;2023-05-06T09:04:16;17.00;99.90
12452;DHT22;6291;48.924;12.204;2023-05-06T09:09:19;16.90;1.00
12452;DHT22;6291;48.924;12.204;2023-05-06T09:14:23;17.20;1.00
12452;DHT22;6291;48.924;12.204;2023-05-06T09:19:27;16.70;1.00
12452;DHT22;6291;48.924;12.204;2023-05-06T09:24:30;17.30;1.00
12452;DHT22;6291;48.924;12.204;2023-05-06T09:29:33;16.70;1.00
12452;DHT22;6291;48.924;12.204;2023-05-06T09:34:38;14.90;1.00
12452;DHT22;6291;48.924;12.204;2023-05-06T09:39:42;17.00;1.00
12452;DHT22;6291;48.924;12.204;2023-05-06T09:44:45;17.80;1.00
12452;DHT22;6291;48.924;12.204;2023-05-06T09:49:50;18.20;1.00
12452;DHT22;6291;48.924;12.204;2023-05-06T09:54:57;19.20;1.00
12452;DHT22;6291;48.924;12.204;2023-05-06T10:00:01;20.80;1.00
12452;DHT22;6291;48.924;12.204;2023-05-06T10:05:14;19.30;1.00
12452;DHT22;6291;48.924;12.204;2023-05-06T10:10:18;19.90;1.00
12452;DHT22;6291;48.924;12.204;2023-05-06T10:15:25;20.00;1.00
12452;DHT22;6291;48.924;12.204;2023-05-06T10:20:30;18.80;1.00
12452;DHT22;6291;48.924;12.204;2023-05-06T10:25:35;19.00;1.00
12452;DHT22;6291;48.924;12.204;2023-05-06T10:30:39;20.30;1.00
12452;DHT22;6291;48.924;12.204;2023-05-06T10:35:46;19.80;1.00
12452;DHT22;6291;48.924;12.204;2023-05-06T10:40:51;19.50;1.00
12452;DHT22;6291;48.924;12.204;2023-05-06T10:45:58;20.20;1.00
12452;DHT22;6291;48.924;12.204;2023-05-06T10:56:31;18.90;1.00
12452;DHT22;6291;48.924;12.204;2023-05-06T11:01:35;18.30;1.00
12452;DHT22;6291;48.924;12.204;2023-05-06T11:06:39;18.80;1.00
12452;DHT22;6291;48.924;12.204;2023-05-06T11:11:48;19.70;1.00
12452;DHT22;6291;48.924;12.204;2023-05-06T11:16:52;20.70;1.00
12452;DHT22;6291;48.924;12.204;2023-05-06T11:21:56;22.30;99.90
12452;DHT22;6291;48.924;12.204;2023-05-06T11:27:00;20.90;99.90
12452;DHT22;6291;48.924;12.204;2023-05-06T11:32:04;20.80;99.90
12452;DHT22;6291;48.924;12.204;2023-05-06T11:37:07;20.60;99.90
12452;DHT22;6291;48.924;12.204;2023-05-06T11:42:12;22.60;99.90
12452;DHT22;6291;48.924;12.204;2023-05-06T11:47:19;21.20;99.90
12452;DHT22;6291;48.924;12.204;2023-05-06T11:52:22;21.30;99.90
12452;DHT22;6291;48.924;12.204;2023-05-06T11:57:27;21.30;99.90
12452;DHT22;6291;48.924;12.204;2023-05-06T12:02:32;21.00;99.90
12452;DHT22;6291;48.924;12.204;2023-05-06T12:07:35;21.50;99.90
12452;DHT22;6291;48.924;12.204;2023-05-06T12:12:40;23.30;99.90
12452;DHT22;6291;48.924;12.204;2023-05-06T12:17:43;23.10;99.90
12452;DHT22;6291;48.924;12.204;2023-05-06T12:28:16;24.70;99.90
12452;DHT22;6291;48.924;12.204;2023-05-06T12:33:19;23.20;99.90
12452;DHT22;6291;48.924;12.204;2023-05-06T12:38:22;22.50;99.90
12452;DHT22;6291;48.924;12.204;2023-05-06T12:43:30;21.10;99.90
12452;DHT22;6291;48.924;12.204;2023-05-06T12:48:33;21.20;99.90
12452;DHT22;6291;48.924;12.204;2023-05-06T12:53:37;20.40;99.90
12452;DHT22;6291;48.924;12.204;2023-05-06T12:58:41;23.40;99.90
12452;DHT22;6291;48.924;12.204;2023-05-06T13:03:44;26.60;99.90
12452;DHT22;6291;48.924;12.204;2023-05-06T13:08:48;25.10;99.90
12452;DHT22;6291;48.924;12.204;2023-05-06T13:13:52;25.20;99.90
12452;DHT22;6291;48.924;12.204;2023-05-06T13:18:55;26.10;99.90
12452;DHT22;6291;48.924;12.204;2023-05-06T13:23:59;25.30;99.90
12452;DHT22;6291;48.924;12.204;2023-05-06T13:29:03;25.10;99.90
12452;DHT22;6291;48.924;12.204;2023-05-06T13:34:06;24.30;99.90
12452;DHT22;6291;48.924;12.204;2023-05-06T13:39:09;24.00;99.90
12452;DHT22;6291;48.924;12.204;2023-05-06T13:44:14;25.10;99.90
12452;DHT22;6291;48.924;12.204;2023-05-06T13:49:17;23.40;99.90
12452;DHT22;6291;48.924;12.204;2023-05-06T13:54:20;24.30;99.90
12452;DHT22;6291;48.924;12.204;2023-05-06T13:59:25;27.10;99.90
12452;DHT22;6291;48.924;12.204;2023-05-06T14:04:29;30.50;99.90
12452;DHT22;6291;48.924;12.204;2023-05-06T14:09:32;28.70;99.90
12452;DHT22;6291;48.924;12.204;2023-05-06T14:14:36;30.10;99.90
12452;DHT22;6291;48.924;12.204;2023-05-06T14:19:39;30.80;99.90
12452;DHT22;6291;48.924;12.204;2023-05-06T14:24:43;29.90;99.90
12452;DHT22;6291;48.924;12.204;2023-05-06T14:29:48;30.60;99.90
12452;DHT22;6291;48.924;12.204;2023-05-06T14:34:51;30.40;99.90
12452;DHT22;6291;48.924;12.204;2023-05-06T14:39:55;29.70;99.90
12452;DHT22;6291;48.924;12.204;2023-05-06T14:45:00;28.30;99.90
12452;DHT22;6291;48.924;12.204;2023-05-06T14:50:03;27.90;99.90
12452;DHT22;6291;48.924;12.204;2023-05-06T14:55:07;28.70;99.90
12452;DHT22;6291;48.924;12.204;2023-05-06T15:00:13;28.50;99.90
12452;DHT22;6291;48.924;12.204;2023-05-06T15:05:16;30.80;99.90
12452;DHT22;6291;48.924;12.204;2023-05-06T15:10:20;30.50;99.90
12452;DHT22;6291;48.924;12.204;2023-05-06T15:15:24;27.50;99.90
12452;DHT22;6291;48.924;12.204;2023-05-06T15:20:28;26.60;99.90
12452;DHT22;6291;48.924;12.204;2023-05-06T15:25:31;26.00;99.90
12452;DHT22;6291;48.924;12.204;2023-05-06T15:30:38;26.10;99.90
12452;DHT22;6291;48.924;12.204;2023-05-06T15:35:41;24.00;99.90
12452;DHT22;6291;48.924;12.204;2023-05-06T15:40:48;25.60;99.90
12452;DHT22;6291;48.924;12.204;2023-05-06T15:45:52;26.10;99.90
12452;DHT22;6291;48.924;12.204;2023-05-06T15:50:56;27.60;99.90
12452;DHT22;6291;48.924;12.204;2023-05-06T15:55:59;26.60;99.90
12452;DHT22;6291;48.924;12.204;2023-05-06T16:01:18;27.60;99.90
12452;DHT22;6291;48.924;12.204;2023-05-06T16:06:41;26.00;99.90
12452;DHT22;6291;48.924;12.204;2023-05-06T16:11:44;24.20;99.90
12452;DHT22;6291;48.924;12.204;2023-05-06T16:16:49;23.00;99.90
12452;DHT22;6291;48.924;12.204;2023-05-06T16:21:52;22.90;99.90
12452;DHT22;6291;48.924;12.204;2023-05-06T16:26:56;23.00;99.90
12452;DHT22;6291;48.924;12.204;2023-05-06T16:32:01;23.20;99.90
12452;DHT22;6291;48.924;12.204;2023-05-06T16:37:04;23.10;99.90
12452;DHT22;6291;48.924;12.204;2023-05-06T16:42:08;23.00;99.90
12452;DHT22;6291;48.924;12.204;2023-05-06T16:47:13;22.50;99.90
12452;DHT22;6291;48.924;12.204;2023-05-06T16:52:16;22.40;99.90
12452;DHT22;6291;48.924;12.204;2023-05-06T16:57:19;22.20;99.90
12452;DHT22;6291;48.924;12.204;2023-05-06T17:02:24;22.10;99.90
12452;DHT22;6291;48.924;12.204;2023-05-06T17:07:27;22.10;99.90
12452;DHT22;6291;48.924;12.204;2023-05-06T17:12:31;22.00;99.90
12452;DHT22;6291;48.924;12.204;2023-05-06T17:17:36;21.60;99.90
12452;DHT22;6291;48.924;12.204;2023-05-06T17:22:39;21.30;99.90
12452;DHT22;6291;48.924;12.204;2023-05-06T17:27:42;21.00;99.90
12452;DHT22;6291;48.924;12.204;2023-05-06T17:32:47;21.00;99.90
12452;DHT22;6291;48.924;12.204;2023-05-06T17:37:50;20.80;99.90
12452;DHT22;6291;48.924;12.204;2023-05-06T17:42:55;20.60;99.90
12452;DHT22;6291;48.924;12.204;2023-05-06T17:48:00;20.50;99.90
12452;DHT22;6291;48.924;12.204;2023-05-06T17:53:03;20.30;99.90
12452;DHT22;6291;48.924;12.204;2023-05-06T17:58:06;20.10;99.90
12452;DHT22;6291;48.924;12.204;2023-05-06T18:03:11;20.00;99.90
12452;DHT22;6291;48.924;12.204;2023-05-06T18:08:14;19.90;99.90
12452;DHT22;6291;48.924;12.204;2023-05-06T18:13:17;20.80;99.90
12452;DHT22;6291;48.924;12.204;2023-05-06T18:18:22;19.50;99.90
12452;DHT22;6291;48.924;12.204;2023-05-06T18:23:25;19.30;99.90
12452;DHT22;6291;48.924;12.204;2023-05-06T18:28:30;19.00;99.90
12452;DHT22;6291;48.924;12.204;2023-05-06T18:33:34;18.60;99.90
12452;DHT22;6291;48.924;12.204;2023-05-06T18:38:37;18.60;99.90
12452;DHT22;6291;48.924;12.204;2023-05-06T18:43:41;18.40;99.90
12452;DHT22;6291;48.924;12.204;2023-05-06T18:48:45;18.20;99.90
12452;DHT22;6291;48.924;12.204;2023-05-06T18:53:48;18.00;99.90
12452;DHT22;6291;48.924;12.204;2023-05-06T18:58:52;17.70;99.90
12452;DHT22;6291;48.924;12.204;2023-05-06T19:03:56;17.50;99.90
12452;DHT22;6291;48.924;12.204;2023-05-06T19:09:00;17.30;99.90
12452;DHT22;6291;48.924;12.204;2023-05-06T19:14:03;17.00;99.90
12452;DHT22;6291;48.924;12.204;2023-05-06T19:19:08;14.30;99.90
12452;DHT22;6291;48.924;12.204;2023-05-06T19:24:11;16.30;99.90
12452;DHT22;6291;48.924;12.204;2023-05-06T19:29:14;15.10;99.90
12452;DHT22;6291;48.924;12.204;2023-05-06T19:34:18;16.50;99.90
12452;DHT22;6291;48.924;12.204;2023-05-06T19:39:21;16.40;99.90
12452;DHT22;6291;48.924;12.204;2023-05-06T19:44:25;16.20;99.90
12452;DHT22;6291;48.924;12.204;2023-05-06T19:49:30;16.00;99.90
12452;DHT22;6291;48.924;12.204;2023-05-06T19:54:33;16.00;99.90
12452;DHT22;6291;48.924;12.204;2023-05-06T19:59:36;15.90;99.90
12452;DHT22;6291;48.924;12.204;2023-05-06T20:04:41;15.70;99.90
12452;DHT22;6291;48.924;12.204;2023-05-06T20:09:44;15.60;99.90
12452;DHT22;6291;48.924;12.204;2023-05-06T20:14:47;15.60;99.90
12452;DHT22;6291;48.924;12.204;2023-05-06T20:19:53;15.60;99.90
12452;DHT22;6291;48.924;12.204;2023-05-06T20:25:05;14.60;99.90
12452;DHT22;6291;48.924;12.204;2023-05-06T20:30:09;18.20;1.00
12452;DHT22;6291;48.924;12.204;2023-05-06T20:35:14;15.10;1.00
12452;DHT22;6291;48.924;12.204;2023-05-06T20:40:18;14.80;1.00
12452;DHT22;6291;48.924;12.204;2023-05-06T20:45:21;14.80;1.00
12452;DHT22;6291;48.924;12.204;2023-05-06T20:50:26;14.70;1.00
12452;DHT22;6291;48.924;12.204;2023-05-06T20:55:31;14.70;1.00
12452;DHT22;6291;48.924;12.204;2023-05-06T21:00:34;14.70;1.00
12452;DHT22;6291;48.924;12.204;2023-05-06T21:05:39;14.60;1.00
12452;DHT22;6291;48.924;12.204;2023-05-06T21:10:42;14.60;1.00
12452;DHT22;6291;48.924;12.204;2023-05-06T21:15:45;14.60;1.00
12452;DHT22;6291;48.924;12.204;2023-05-06T21:20:50;13.40;1.00
12452;DHT22;6291;48.924;12.204;2023-05-06T21:25:53;14.40;1.00
12452;DHT22;6291;48.924;12.204;2023-05-06T21:30:56;14.30;1.00
12452;DHT22;6291;48.924;12.204;2023-05-06T21:36:01;14.30;1.00
12452;DHT22;6291;48.924;12.204;2023-05-06T21:41:04;14.20;1.00
12452;DHT22;6291;48.924;12.204;2023-05-06T21:46:07;14.20;1.00
12452;DHT22;6291;48.924;12.204;2023-05-06T21:51:12;14.10;1.00
12452;DHT22;6291;48.924;12.204;2023-05-06T21:56:15;14.10;1.00
12452;DHT22;6291;48.924;12.204;2023-05-06T22:01:19;13.00;1.00
12452;DHT22;6291;48.924;12.204;2023-05-06T22:06:23;13.90;1.00
12452;DHT22;6291;48.924;12.204;2023-05-06T22:11:26;13.70;1.00
12452;DHT22;6291;48.924;12.204;2023-05-06T22:16:30;13.50;1.00
12452;DHT22;6291;48.924;12.204;2023-05-06T22:21:36;11.60;1.00
12452;DHT22;6291;48.924;12.204;2023-05-06T22:26:39;13.50;1.00
12452;DHT22;6291;48.924;12.204;2023-05-06T22:31:42;13.60;1.00
12452;DHT22;6291;48.924;12.204;2023-05-06T22:36:47;13.40;35.30
12452;DHT22;6291;48.924;12.204;2023-05-06T22:41:50;13.20;99.90
12452;DHT22;6291;48.924;12.204;2023-05-06T22:46:53;13.10;99.90
12452;DHT22;6291;48.924;12.204;2023-05-06T22:51:58;13.10;99.90
12452;DHT22;6291;48.924;12.204;2023-05-06T22:57:01;13.00;99.90
12452;DHT22;6291;48.924;12.204;2023-05-06T23:02:05;10.20;99.90
12452;DHT22;6291;48.924;12.204;2023-05-06T23:07:09;13.10;99.90
12452;DHT22;6291;48.924;12.204;2023-05-06T23:12:14;10.70;99.90
12452;DHT22;6291;48.924;12.204;2023-05-06T23:17:17;13.00;99.90
12452;DHT22;6291;48.924;12.204;2023-05-06T23:22:22;13.00;99.90
12452;DHT22;6291;48.924;12.204;2023-05-06T23:27:25;13.00;99.90
12452;DHT22;6291;48.924;12.204;2023-05-06T23:32:28;13.10;99.90
12452;DHT22;6291;48.924;12.204;2023-05-06T23:37:33;14.30;99.90
12452;DHT22;6291;48.924;12.204;2023-05-06T23:42:37;13.00;99.90
12452;DHT22;6291;48.924;12.204;2023-05-06T23:47:40;12.90;99.90
12452;DHT22;6291;48.924;12.204;2023-05-06T23:52:45;12.80;99.90
12452;DHT22;6291;48.924;12.204;2023-05-06T23:57:48;12.60;99.90
